KGLS/GLS METAR and TAF weather

Enter ICAO airport designator
Station Type Date Time Source
KGLS METAR 2020/07/12 06:52 UTC NOAA

KGLS 120652Z AUTO 23005KT 10SM CLR 28/26 A2997 RMK AO2 SLP148 T02830256


Station Type Date Time Source
KGLS Decoded METAR 2020/07/12 06:52 UTC NOAA

SCHOLES FIELD, TX, United States (KGLS) 29-16N 094-52W 6M
Jul 12, 2020 - 02:52 AM EDT / 2020.07.12 0652 UTC
Wind: from the SW (230 degrees) at 6 MPH (5 KT):0
Visibility: 10 mile(s):0
Sky conditions: clear
Temperature: 82.9 F (28.3 C)
Dew Point: 78.1 F (25.6 C)
Relative Humidity: 85%
Pressure (altimeter): 29.97 in. Hg (1014 hPa)
ob: KGLS 120652Z AUTO 23005KT 10SM CLR 28/26 A2997 RMK AO2 SLP148 T02830256
cycle: 7

Station Type Date Time Source
KGLS TAF 2020/07/12 06:25 UTC NOAA

TAF KGLS 120520Z 1206/1306 20010KT P6SM SKC
FM120900 22008KT P6SM FEW025
FM121500 24009KT P6SM SCT030
FM121900 20014KT P6SM SCT250
FM130300 20010KT P6SM SCT250

Example: see airport list